Time;durP1;ratioP1;P1;durP2;ratioP2;P2;SDS_P1;SDS_P2;PMS_P1;PMS_P2;Temp;Humidity;BMP_temperature;BMP_pressure;BME280_temperature;BME280_humidity;BME280_pressure;Samples;Min_cycle;Max_cycle;Signal;HPM_P1;HPM_P2
2021/06/12 00:01:42;;;;;;;12.57;7.55;;;17.00;79.90;;;;;;5044868;28;20401;-73
2021/06/12 00:04:08;;;;;;;12.57;7.95;;;17.00;79.90;;;;;;5047935;28;20029;-73
2021/06/12 00:06:33;;;;;;;10.70;7.57;;;16.90;80.30;;;;;;5047141;28;20068;-73
2021/06/12 00:08:59;;;;;;;10.77;7.53;;;16.90;80.60;;;;;;5046933;28;20047;-73
2021/06/12 00:11:24;;;;;;;12.20;8.63;;;16.90;80.50;;;;;;5046062;28;20144;-73
2021/06/12 00:13:50;;;;;;;12.38;7.95;;;16.80;80.50;;;;;;5044598;28;20033;-73
2021/06/12 00:16:18;;;;;;;11.38;7.50;;;16.70;80.90;;;;;;5045118;28;20074;-73
2021/06/12 00:18:44;;;;;;;12.15;8.43;;;16.60;81.10;;;;;;5046673;28;20037;-73
2021/06/12 00:21:10;;;;;;;11.38;8.10;;;16.70;81.20;;;;;;5047836;28;20029;-73
2021/06/12 00:23:35;;;;;;;10.15;7.00;;;16.70;81.20;;;;;;5046475;28;20071;-73
2021/06/12 00:26:01;;;;;;;12.10;8.25;;;16.70;81.20;;;;;;5043157;28;20025;-73
2021/06/12 00:28:27;;;;;;;13.25;8.10;;;16.70;81.00;;;;;;5048555;28;20471;-73
2021/06/12 00:30:52;;;;;;;12.80;8.48;;;16.70;80.90;;;;;;5048495;28;20472;-73
2021/06/12 00:33:18;;;;;;;13.13;9.23;;;16.70;81.20;;;;;;5047088;28;20044;-73
2021/06/12 00:35:44;;;;;;;14.35;9.30;;;16.60;81.10;;;;;;5046415;28;20110;-73
2021/06/12 00:38:10;;;;;;;12.30;8.93;;;16.60;81.20;;;;;;5050526;28;20045;-72
2021/06/12 00:40:37;;;;;;;14.32;9.35;;;16.60;81.40;;;;;;5050038;28;20040;-73
2021/06/12 00:43:04;;;;;;;12.60;8.65;;;16.50;82.00;;;;;;5050154;28;20130;-72
2021/06/12 00:45:31;;;;;;;13.60;10.07;;;16.60;81.70;;;;;;5046775;28;20162;-73
2021/06/12 00:47:58;;;;;;;12.40;9.05;;;16.50;81.50;;;;;;5045391;28;20029;-73
2021/06/12 00:50:27;;;;;;;14.23;9.93;;;16.50;81.90;;;;;;5047579;28;20033;-73
2021/06/12 00:52:52;;;;;;;12.38;9.35;;;16.50;82.00;;;;;;5045475;28;20095;-73
2021/06/12 00:55:19;;;;;;;12.60;9.65;;;16.40;82.10;;;;;;5046350;28;20464;-73
2021/06/12 00:57:45;;;;;;;13.80;9.57;;;16.40;82.30;;;;;;5048555;28;20496;-73
2021/06/12 01:00:14;;;;;;;13.52;10.38;;;16.40;82.30;;;;;;5045891;28;20052;-73
2021/06/12 01:02:40;;;;;;;16.70;11.70;;;16.40;82.20;;;;;;5047601;28;20503;-72
2021/06/12 01:05:08;;;;;;;15.82;11.90;;;16.50;81.90;;;;;;5041369;28;20037;-73
2021/06/12 01:07:34;;;;;;;16.95;11.60;;;16.50;82.10;;;;;;5048015;28;20037;-73
2021/06/12 01:10:00;;;;;;;13.82;11.13;;;16.40;82.20;;;;;;5046499;28;20079;-73
2021/06/12 01:12:38;;;;;;;16.65;12.30;;;16.40;82.20;;;;;;5042624;28;20160;-73
2021/06/12 01:15:09;;;;;;;16.95;12.50;;;16.50;82.40;;;;;;5035931;28;20025;-73
2021/06/12 01:17:44;;;;;;;19.02;11.95;;;16.40;82.60;;;;;;5044852;28;20487;-73
2021/06/12 01:20:57;;;;;;;16.35;11.48;;;16.40;82.70;;;;;;5045558;28;20041;-73
2021/06/12 01:23:44;;;;;;;15.93;11.50;;;16.40;82.60;;;;;;5033041;28;20469;-73
2021/06/12 01:26:33;;;;;;;15.23;11.93;;;16.50;82.50;;;;;;5046661;28;20021;-73
2021/06/12 01:29:23;;;;;;;14.68;12.18;;;16.50;82.50;;;;;;5045098;28;20052;-73
2021/06/12 01:31:50;;;;;;;14.70;11.60;;;16.50;82.60;;;;;;5046350;28;20106;-73
2021/06/12 01:34:18;;;;;;;15.30;11.93;;;16.50;82.40;;;;;;5045294;28;20049;-72
2021/06/12 01:36:46;;;;;;;15.50;12.63;;;16.60;82.70;;;;;;5043813;28;20488;-72
2021/06/12 01:39:12;;;;;;;16.30;11.90;;;16.50;82.70;;;;;;5044610;28;20124;-73
2021/06/12 01:41:40;;;;;;;17.73;12.90;;;16.60;82.70;;;;;;5053290;28;20047;-73
2021/06/12 01:44:09;;;;;;;17.00;13.27;;;16.50;82.60;;;;;;5042764;28;20037;-73
2021/06/12 01:46:36;;;;;;;16.60;12.32;;;16.50;82.50;;;;;;5044392;28;20033;-73
2021/06/12 01:49:03;;;;;;;16.67;13.23;;;16.50;82.80;;;;;;5046237;28;20086;-73
2021/06/12 01:51:29;;;;;;;17.88;13.82;;;16.50;82.80;;;;;;5046164;28;20044;-73
2021/06/12 01:53:56;;;;;;;18.08;13.80;;;16.50;82.90;;;;;;5042146;28;20125;-74
2021/06/12 01:56:25;;;;;;;18.40;14.35;;;16.40;83.10;;;;;;5042913;28;20059;-73
2021/06/12 01:58:52;;;;;;;18.48;15.18;;;16.50;83.00;;;;;;5046936;28;20067;-73
2021/06/12 02:01:20;;;;;;;20.00;14.73;;;16.30;83.50;;;;;;5043943;28;20032;-73
2021/06/12 02:03:48;;;;;;;20.23;15.77;;;16.20;83.70;;;;;;5044855;28;20049;-73
2021/06/12 02:06:16;;;;;;;19.52;16.35;;;16.30;83.50;;;;;;5044135;28;20045;-73
2021/06/12 02:08:46;;;;;;;20.52;16.42;;;16.30;83.80;;;;;;5043371;28;20032;-74
2021/06/12 02:11:14;;;;;;;20.23;16.40;;;16.30;83.70;;;;;;5045549;28;20037;-74
2021/06/12 02:13:41;;;;;;;20.98;17.42;;;16.40;83.70;;;;;;5044753;28;20037;-73
2021/06/12 02:16:07;;;;;;;23.50;18.15;;;16.40;83.40;;;;;;5046532;28;20047;-73
2021/06/12 02:18:33;;;;;;;21.67;18.08;;;16.40;83.90;;;;;;5043523;28;20029;-74
2021/06/12 02:21:00;;;;;;;25.67;19.38;;;16.40;83.80;;;;;;5046845;28;20033;-74
2021/06/12 02:23:28;;;;;;;26.65;20.25;;;16.40;83.70;;;;;;5049076;28;20041;-74
2021/06/12 02:25:53;;;;;;;27.77;21.55;;;16.50;83.70;;;;;;5049269;28;20072;-74
2021/06/12 02:28:21;;;;;;;32.55;23.85;;;16.40;83.90;;;;;;5049977;28;20408;-73
2021/06/12 02:30:53;;;;;;;29.88;23.75;;;16.40;83.60;;;;;;5047334;28;20072;-74
2021/06/12 02:33:21;;;;;;;31.42;24.77;;;16.40;84.20;;;;;;5048992;28;20475;-74
2021/06/12 02:35:47;;;;;;;39.45;29.50;;;16.40;84.20;;;;;;5050664;28;20168;-74
2021/06/12 02:38:13;;;;;;;37.95;27.92;;;16.40;84.30;;;;;;5050439;28;20543;-73
2021/06/12 02:40:38;;;;;;;36.78;28.92;;;16.30;84.30;;;;;;5053391;28;20541;-73
2021/06/12 02:43:04;;;;;;;40.05;29.70;;;16.30;84.40;;;;;;5049339;28;20493;-73
2021/06/12 02:45:30;;;;;;;37.55;28.48;;;16.40;84.50;;;;;;5046823;28;20033;-74
2021/06/12 02:48:03;;;;;;;38.30;28.02;;;16.40;84.40;;;;;;5049144;28;20060;-74
2021/06/12 02:50:32;;;;;;;35.25;26.98;;;16.50;84.30;;;;;;5044992;28;20477;-73
2021/06/12 02:53:02;;;;;;;37.80;28.40;;;16.50;84.30;;;;;;5046202;28;20037;-73
2021/06/12 02:55:30;;;;;;;37.70;28.70;;;16.50;84.00;;;;;;5047811;28;20121;-73
2021/06/12 02:57:57;;;;;;;36.72;28.08;;;16.50;84.40;;;;;;5047460;28;20127;-74
2021/06/12 03:00:23;;;;;;;37.95;28.23;;;16.60;84.10;;;;;;5048792;28;20046;-73
2021/06/12 03:02:51;;;;;;;39.08;28.70;;;16.50;84.10;;;;;;5048971;28;20076;-73
2021/06/12 03:05:28;;;;;;;35.00;27.77;;;16.60;84.10;;;;;;5047968;28;20029;-73
2021/06/12 03:07:56;;;;;;;34.42;27.17;;;16.60;84.00;;;;;;5043502;28;20450;-73
2021/06/12 03:10:24;;;;;;;36.78;28.35;;;16.60;83.80;;;;;;5049173;28;20033;-73
2021/06/12 03:12:51;;;;;;;37.28;27.63;;;16.60;83.80;;;;;;5048070;28;20040;-73
2021/06/12 03:15:17;;;;;;;33.80;26.20;;;16.60;83.80;;;;;;5060425;28;20062;-73
2021/06/12 03:17:48;;;;;;;32.15;25.13;;;16.70;83.60;;;;;;5050196;28;20027;-73
2021/06/12 03:20:16;;;;;;;32.08;25.92;;;16.70;83.50;;;;;;5047512;28;20052;-74
2021/06/12 03:22:45;;;;;;;32.90;25.30;;;16.80;83.50;;;;;;5045597;28;20041;-73
2021/06/12 03:25:12;;;;;;;30.05;22.83;;;16.70;83.70;;;;;;5043695;28;20049;-73
2021/06/12 03:27:39;;;;;;;32.00;23.67;;;16.70;83.50;;;;;;5046578;28;20036;-73
2021/06/12 03:30:05;;;;;;;32.55;24.77;;;16.70;83.50;;;;;;5049418;28;20029;-74
2021/06/12 03:32:32;;;;;;;28.50;23.90;;;16.70;83.40;;;;;;5047274;28;20032;-73
2021/06/12 03:34:59;;;;;;;29.92;23.85;;;16.70;83.50;;;;;;5043371;28;20037;-73
2021/06/12 03:37:25;;;;;;;29.58;22.95;;;16.70;83.60;;;;;;5048173;28;20065;-73
2021/06/12 03:39:52;;;;;;;29.52;22.33;;;16.80;83.70;;;;;;5045976;28;20055;-73
2021/06/12 03:42:18;;;;;;;28.30;22.42;;;16.80;83.70;;;;;;5048464;28;20126;-74
2021/06/12 03:44:45;;;;;;;31.38;23.80;;;16.80;83.50;;;;;;5046686;28;20044;-74
2021/06/12 03:47:12;;;;;;;28.45;23.95;;;16.80;83.60;;;;;;5045274;28;20043;-73
2021/06/12 03:49:39;;;;;;;28.90;23.25;;;16.80;83.40;;;;;;5048367;28;20041;-73
2021/06/12 03:52:06;;;;;;;26.80;21.40;;;16.80;83.50;;;;;;5048608;28;20029;-73
2021/06/12 03:54:34;;;;;;;30.48;22.70;;;16.90;83.60;;;;;;5046354;28;20025;-73
2021/06/12 03:57:00;;;;;;;27.50;21.85;;;16.90;83.40;;;;;;5045231;28;20392;-73
2021/06/12 03:59:26;;;;;;;29.20;22.75;;;17.00;83.00;;;;;;5048081;28;20036;-74
2021/06/12 04:01:54;;;;;;;27.80;21.88;;;17.00;83.00;;;;;;5047871;28;20128;-73
2021/06/12 04:04:21;;;;;;;28.40;23.33;;;16.90;83.20;;;;;;5047677;28;20772;-73
2021/06/12 04:06:47;;;;;;;27.08;22.00;;;17.00;83.00;;;;;;5048418;28;20056;-73
2021/06/12 04:09:12;;;;;;;28.92;20.98;;;16.90;83.30;;;;;;5044046;28;20041;-73
2021/06/12 04:11:38;;;;;;;27.80;21.52;;;16.90;83.20;;;;;;5046884;28;20599;-73
2021/06/12 04:14:04;;;;;;;25.00;21.02;;;16.90;83.10;;;;;;5046575;28;20051;-73
2021/06/12 04:16:30;;;;;;;29.42;21.30;;;16.90;83.40;;;;;;5049559;28;20051;-74
2021/06/12 04:18:55;;;;;;;27.10;21.17;;;16.90;83.30;;;;;;5046389;28;20300;-74
2021/06/12 04:21:21;;;;;;;27.55;20.60;;;16.90;83.40;;;;;;5047138;28;20049;-73
2021/06/12 04:23:47;;;;;;;27.13;21.75;;;16.90;83.50;;;;;;5042922;28;20040;-74
2021/06/12 04:26:12;;;;;;;26.70;21.30;;;16.90;83.30;;;;;;5048293;28;20037;-73
2021/06/12 04:28:38;;;;;;;28.50;21.63;;;17.00;83.30;;;;;;5048056;28;20052;-73
2021/06/12 04:31:04;;;;;;;28.77;22.63;;;17.00;83.30;;;;;;5045288;28;20037;-73
2021/06/12 04:33:30;;;;;;;27.08;22.15;;;17.00;83.30;;;;;;5046578;28;20044;-74
2021/06/12 04:35:56;;;;;;;27.30;21.42;;;17.00;83.30;;;;;;5048238;28;20099;-74
2021/06/12 04:38:22;;;;;;;27.90;21.77;;;17.00;83.60;;;;;;5046868;28;20146;-74
2021/06/12 04:40:48;;;;;;;26.65;21.70;;;17.00;83.40;;;;;;5048437;28;20546;-73
2021/06/12 04:43:13;;;;;;;27.88;22.30;;;17.00;83.40;;;;;;5045555;28;20037;-74
2021/06/12 04:45:40;;;;;;;28.27;23.08;;;17.00;83.30;;;;;;5043775;28;20044;-73
2021/06/12 04:48:07;;;;;;;28.65;22.38;;;17.00;83.40;;;;;;5046863;28;20090;-74
2021/06/12 04:50:36;;;;;;;27.02;21.60;;;17.00;83.40;;;;;;5046995;28;20567;-75
2021/06/12 04:53:04;;;;;;;28.40;21.73;;;17.10;83.40;;;;;;5045424;28;20507;-74
2021/06/12 04:55:29;;;;;;;25.52;21.30;;;17.00;83.40;;;;;;5045447;28;20378;-74
2021/06/12 04:57:55;;;;;;;25.25;21.70;;;17.10;83.20;;;;;;5061448;28;20044;-74
2021/06/12 05:00:22;;;;;;;24.50;21.00;;;17.00;83.10;;;;;;5045070;28;20460;-74
2021/06/12 05:02:47;;;;;;;25.85;21.30;;;17.00;83.30;;;;;;5046699;28;20037;-74
2021/06/12 05:05:13;;;;;;;26.35;20.88;;;17.00;83.70;;;;;;5046670;28;20078;-74
2021/06/12 05:07:39;;;;;;;24.98;20.23;;;16.90;83.70;;;;;;5044351;28;20491;-74
2021/06/12 05:10:06;;;;;;;26.60;21.55;;;16.90;83.70;;;;;;5045264;28;20067;-74
2021/06/12 05:12:32;;;;;;;25.83;21.50;;;16.90;83.80;;;;;;5047632;28;20555;-73
2021/06/12 05:15:01;;;;;;;25.23;21.58;;;16.90;84.00;;;;;;5045532;28;20120;-74
2021/06/12 05:17:27;;;;;;;26.05;22.13;;;16.90;83.70;;;;;;5045780;28;20449;-74
2021/06/12 05:19:53;;;;;;;25.33;21.50;;;16.90;83.70;;;;;;5046685;28;20139;-73
2021/06/12 05:22:27;;;;;;;25.10;20.27;;;17.00;83.50;;;;;;5042434;28;20392;-73
2021/06/12 05:24:54;;;;;;;25.30;20.23;;;17.00;83.70;;;;;;5045037;28;20060;-74
2021/06/12 05:27:20;;;;;;;24.83;20.52;;;17.00;83.40;;;;;;5046236;28;20491;-74
2021/06/12 05:29:46;;;;;;;27.15;22.15;;;17.00;83.40;;;;;;5047065;28;20120;-73
2021/06/12 05:32:12;;;;;;;23.90;20.27;;;16.90;83.60;;;;;;5044787;28;20428;-74
2021/06/12 05:34:38;;;;;;;22.35;19.38;;;17.00;83.80;;;;;;5044026;28;20037;-73
2021/06/12 05:37:04;;;;;;;23.60;19.48;;;17.00;83.70;;;;;;5045979;28;20033;-74
2021/06/12 05:39:30;;;;;;;20.00;16.52;;;17.10;83.60;;;;;;5045371;28;20045;-74
2021/06/12 05:41:56;;;;;;;24.05;19.02;;;17.10;83.40;;;;;;5047090;28;20400;-74
2021/06/12 05:44:22;;;;;;;23.45;18.42;;;17.10;83.20;;;;;;5043433;28;20037;-74
2021/06/12 05:46:50;;;;;;;24.50;19.35;;;17.10;83.20;;;;;;5047238;28;20044;-74
2021/06/12 05:49:16;;;;;;;22.83;18.45;;;17.10;83.50;;;;;;5056019;28;20495;-74
2021/06/12 05:51:42;;;;;;;23.77;19.33;;;17.00;83.40;;;;;;5047039;28;20037;-74
2021/06/12 05:54:08;;;;;;;23.35;18.42;;;17.10;83.50;;;;;;5042598;28;20567;-74
2021/06/12 05:56:33;;;;;;;23.48;17.90;;;17.00;83.60;;;;;;5044385;28;20434;-74
2021/06/12 05:58:59;;;;;;;19.95;17.00;;;17.10;83.40;;;;;;5043694;28;20473;-74
2021/06/12 06:01:25;;;;;;;21.50;18.42;;;17.10;83.60;;;;;;5040442;28;20033;-74
2021/06/12 06:03:50;;;;;;;21.42;16.60;;;17.10;83.50;;;;;;5033128;28;20041;-75
2021/06/12 06:06:16;;;;;;;20.77;17.15;;;17.20;83.40;;;;;;5034616;28;20680;-74
2021/06/12 06:08:42;;;;;;;23.33;18.67;;;17.20;83.20;;;;;;5036119;28;20531;-74
2021/06/12 06:11:07;;;;;;;22.85;17.98;;;17.30;83.10;;;;;;5032685;28;20041;-74
2021/06/12 06:13:44;;;;;;;23.33;17.77;;;17.30;83.10;;;;;;5038094;28;20228;-74
2021/06/12 06:16:10;;;;;;;20.63;16.98;;;17.20;83.00;;;;;;5035693;28;20477;-74
2021/06/12 06:18:37;;;;;;;20.55;16.60;;;17.20;83.20;;;;;;5027216;28;20033;-74
2021/06/12 06:21:07;;;;;;;20.70;16.58;;;17.20;83.20;;;;;;5029989;28;20034;-75
2021/06/12 06:23:33;;;;;;;21.13;16.40;;;17.30;83.10;;;;;;5031291;28;20033;-75
2021/06/12 06:25:59;;;;;;;21.17;17.42;;;17.20;83.60;;;;;;5030712;28;20870;-75
2021/06/12 06:28:25;;;;;;;22.58;18.02;;;17.10;83.80;;;;;;5033889;28;20041;-74
2021/06/12 06:30:51;;;;;;;23.33;18.20;;;17.20;84.70;;;;;;5042121;28;20029;-74
2021/06/12 06:33:16;;;;;;;24.63;18.67;;;17.20;84.90;;;;;;5042180;28;20442;-74
2021/06/12 06:35:42;;;;;;;24.10;19.30;;;17.30;85.10;;;;;;5038343;28;20037;-72
2021/06/12 06:38:08;;;;;;;21.50;17.60;;;17.30;85.20;;;;;;5047435;28;20032;-70
2021/06/12 06:40:34;;;;;;;23.52;18.20;;;17.30;85.20;;;;;;5045195;28;20039;-70
2021/06/12 06:42:59;;;;;;;24.23;19.33;;;17.40;84.60;;;;;;5042723;28;20469;-75
2021/06/12 06:45:25;;;;;;;25.63;19.80;;;17.40;85.00;;;;;;5044315;28;20064;-75
2021/06/12 06:47:51;;;;;;;24.45;17.98;;;17.30;84.80;;;;;;5039277;28;20037;-75
2021/06/12 06:50:19;;;;;;;22.08;18.48;;;17.40;84.50;;;;;;5034591;28;20030;-75
2021/06/12 06:52:47;;;;;;;22.42;18.80;;;17.50;84.40;;;;;;5037081;28;20120;-76
2021/06/12 06:55:13;;;;;;;20.88;17.55;;;17.60;84.20;;;;;;5033360;28;20033;-75
2021/06/12 06:57:38;;;;;;;22.63;18.85;;;17.60;84.20;;;;;;5032238;28;20029;-75
2021/06/12 07:00:05;;;;;;;22.52;17.55;;;17.60;84.10;;;;;;5036348;28;20041;-75
2021/06/12 07:02:31;;;;;;;23.77;19.05;;;17.60;83.90;;;;;;5036817;28;20266;-75
2021/06/12 07:04:57;;;;;;;21.98;18.38;;;17.60;83.90;;;;;;5037647;28;20063;-71
2021/06/12 07:07:23;;;;;;;23.83;18.95;;;17.60;83.80;;;;;;5041392;28;20060;-70
2021/06/12 07:09:49;;;;;;;21.75;18.73;;;17.70;83.30;;;;;;5035177;28;20032;-69
2021/06/12 07:12:15;;;;;;;20.83;17.38;;;17.70;83.20;;;;;;5040727;28;20377;-70
2021/06/12 07:14:43;;;;;;;21.27;17.00;;;17.70;83.00;;;;;;5037662;28;20043;-69
2021/06/12 07:17:09;;;;;;;20.95;17.08;;;17.80;82.40;;;;;;5045273;28;20389;-69
2021/06/12 07:19:35;;;;;;;23.60;17.73;;;17.90;82.10;;;;;;5048330;28;20037;-68
2021/06/12 07:22:00;;;;;;;20.25;15.95;;;17.90;81.70;;;;;;5048005;28;20037;-69
2021/06/12 07:24:26;;;;;;;19.65;17.13;;;17.90;81.50;;;;;;5047407;28;20124;-69
2021/06/12 07:26:52;;;;;;;19.15;16.55;;;18.00;81.40;;;;;;5046758;28;20120;-69
2021/06/12 07:29:17;;;;;;;21.45;17.60;;;18.20;81.50;;;;;;5041896;28;20458;-69
2021/06/12 07:31:43;;;;;;;21.05;17.25;;;18.30;80.10;;;;;;5042848;28;20075;-74
2021/06/12 07:34:10;;;;;;;21.15;17.88;;;18.40;80.40;;;;;;5037442;28;20299;-76
2021/06/12 07:36:36;;;;;;;21.38;17.98;;;18.50;79.40;;;;;;5044834;28;20037;-74
2021/06/12 07:39:04;;;;;;;20.77;17.13;;;18.40;80.00;;;;;;5037848;28;20034;-75
2021/06/12 07:41:31;;;;;;;19.00;16.33;;;18.60;79.20;;;;;;5041071;28;21675;-74
2021/06/12 07:43:57;;;;;;;25.00;18.55;;;18.60;78.70;;;;;;5037576;28;20037;-75
2021/06/12 07:46:23;;;;;;;22.60;19.33;;;18.50;78.90;;;;;;5041985;28;20607;-75
2021/06/12 07:48:49;;;;;;;20.48;17.85;;;18.40;79.60;;;;;;5048937;28;20033;-75
2021/06/12 07:51:15;;;;;;;22.10;19.50;;;18.60;78.60;;;;;;5044521;28;20397;-75
2021/06/12 07:53:40;;;;;;;23.00;19.02;;;18.60;78.50;;;;;;5044396;28;20039;-77
2021/06/12 07:56:06;;;;;;;22.00;19.17;;;19.10;77.50;;;;;;5049191;28;20373;-75
2021/06/12 07:58:32;;;;;;;22.33;18.90;;;19.30;76.30;;;;;;5041610;28;20478;-76
2021/06/12 08:00:57;;;;;;;21.17;17.75;;;19.70;75.70;;;;;;5036631;28;20215;-74
2021/06/12 08:03:23;;;;;;;23.40;18.92;;;19.90;74.70;;;;;;5041988;28;20037;-76
2021/06/12 08:05:49;;;;;;;22.33;19.35;;;19.80;74.90;;;;;;5047975;28;20045;-74
2021/06/12 08:08:14;;;;;;;20.98;18.27;;;19.90;73.80;;;;;;5043909;28;20094;-74
2021/06/12 08:10:40;;;;;;;20.02;17.83;;;20.00;74.10;;;;;;5045325;28;20091;-75
2021/06/12 08:13:06;;;;;;;20.52;17.50;;;20.10;73.90;;;;;;5047686;28;20124;-75
2021/06/12 08:15:31;;;;;;;20.63;17.90;;;20.10;73.60;;;;;;5043176;28;20041;-76
2021/06/12 08:17:57;;;;;;;20.30;18.20;;;20.00;73.60;;;;;;5046617;28;20033;-75
2021/06/12 08:20:24;;;;;;;20.92;18.42;;;20.10;73.60;;;;;;5041127;28;20033;-76
2021/06/12 08:22:52;;;;;;;21.60;18.70;;;19.70;74.50;;;;;;5041119;28;20389;-75
2021/06/12 08:25:18;;;;;;;19.20;17.05;;;19.70;74.90;;;;;;5035524;28;20048;-75
2021/06/12 08:27:45;;;;;;;21.17;17.70;;;19.60;75.00;;;;;;5037925;28;20380;-75
2021/06/12 08:30:12;;;;;;;19.98;16.85;;;19.60;75.50;;;;;;5041103;28;20036;-74
2021/06/12 08:32:38;;;;;;;21.67;17.50;;;19.60;75.90;;;;;;5041890;28;20595;-75
2021/06/12 08:35:05;;;;;;;20.13;17.88;;;19.40;76.50;;;;;;5042602;28;20106;-76
2021/06/12 08:37:31;;;;;;;21.35;18.23;;;19.40;76.30;;;;;;5041488;28;20021;-75
2021/06/12 08:39:56;;;;;;;21.90;19.50;;;19.30;76.40;;;;;;5043735;28;20223;-75
2021/06/12 08:42:22;;;;;;;21.83;19.60;;;19.30;76.40;;;;;;5045088;28;20628;-75
2021/06/12 08:44:48;;;;;;;22.20;19.85;;;19.40;75.90;;;;;;5042595;28;20056;-74
2021/06/12 08:47:14;;;;;;;20.13;18.08;;;19.50;75.90;;;;;;5042764;28;20056;-70
2021/06/12 08:49:41;;;;;;;20.88;18.67;;;19.70;75.50;;;;;;5042443;28;20472;-70
2021/06/12 08:52:07;;;;;;;22.08;18.85;;;19.90;74.80;;;;;;5039337;28;20033;-71
2021/06/12 08:54:33;;;;;;;20.75;18.52;;;20.00;74.10;;;;;;5045159;28;20039;-70
2021/06/12 08:56:58;;;;;;;22.05;19.67;;;20.20;74.30;;;;;;5035237;28;20548;-70
2021/06/12 08:59:26;;;;;;;20.85;18.10;;;20.70;73.10;;;;;;5042809;28;20068;-69
2021/06/12 09:01:52;;;;;;;21.02;18.63;;;20.80;72.00;;;;;;5033603;28;20084;-69
2021/06/12 09:04:43;;;;;;;19.85;17.75;;;21.10;71.50;;;;;;5036940;28;20499;-69
2021/06/12 09:07:26;;;;;;;19.95;17.90;;;21.10;70.40;;;;;;5031041;28;20064;-71
2021/06/12 09:09:55;;;;;;;21.08;18.75;;;21.10;70.60;;;;;;5039062;28;20040;-70
2021/06/12 09:12:21;;;;;;;20.13;18.08;;;21.00;70.60;;;;;;5041286;28;20048;-70
2021/06/12 09:15:12;;;;;;;20.15;18.15;;;21.00;70.60;;;;;;5036652;28;20037;-71
2021/06/12 09:17:44;;;;;;;20.15;18.05;;;21.20;69.90;;;;;;5036254;28;20034;-70
2021/06/12 09:20:14;;;;;;;20.38;18.48;;;20.90;70.80;;;;;;5038291;28;20037;-72
2021/06/12 09:22:39;;;;;;;21.35;19.23;;;21.10;70.20;;;;;;5029175;28;20041;-70
2021/06/12 09:25:05;;;;;;;21.05;19.05;;;21.40;69.40;;;;;;5036372;28;20392;-72
2021/06/12 09:27:31;;;;;;;20.88;18.70;;;21.60;68.70;;;;;;5038288;28;20116;-72
2021/06/12 09:30:01;;;;;;;21.77;19.67;;;21.80;67.30;;;;;;5038537;28;20191;-73
2021/06/12 09:32:30;;;;;;;22.20;20.02;;;21.40;68.10;;;;;;5036938;28;20119;-71
2021/06/12 09:35:08;;;;;;;20.85;18.85;;;21.60;69.20;;;;;;5039255;28;20130;-72
2021/06/12 09:37:34;;;;;;;21.00;18.67;;;21.80;68.40;;;;;;5033181;28;20111;-71
2021/06/12 09:40:06;;;;;;;20.52;18.48;;;22.10;67.30;;;;;;5040160;28;20029;-71
2021/06/12 09:42:41;;;;;;;20.85;18.73;;;22.10;66.40;;;;;;5038123;28;20392;-70
2021/06/12 09:45:10;;;;;;;19.48;17.52;;;21.80;66.70;;;;;;5034044;28;20040;-72
2021/06/12 09:47:36;;;;;;;18.60;16.63;;;21.50;67.10;;;;;;5036416;28;20060;-72
2021/06/12 09:50:05;;;;;;;19.67;17.75;;;21.10;67.60;;;;;;5034372;28;20133;-71
2021/06/12 09:53:00;;;;;;;20.40;18.42;;;21.00;68.90;;;;;;5036968;28;20040;-70
2021/06/12 09:55:31;;;;;;;18.98;17.10;;;21.10;70.00;;;;;;5043501;28;20499;-71
2021/06/12 09:58:00;;;;;;;20.15;17.02;;;21.50;68.80;;;;;;5041649;28;20124;-72
2021/06/12 10:00:43;;;;;;;15.52;14.07;;;21.70;67.60;;;;;;5044829;28;20032;-70
2021/06/12 10:03:20;;;;;;;15.02;13.55;;;21.70;66.10;;;;;;5041418;28;20400;-70
2021/06/12 10:05:47;;;;;;;15.25;13.65;;;21.70;65.50;;;;;;5041193;28;20033;-72
2021/06/12 10:08:14;;;;;;;15.75;13.98;;;21.80;64.40;;;;;;5037283;28;20057;-70
2021/06/12 10:10:47;;;;;;;11.65;10.40;;;22.10;65.10;;;;;;5040325;28;20036;-70
2021/06/12 10:13:13;;;;;;;11.43;10.23;;;22.10;63.40;;;;;;5036307;28;20042;-70
2021/06/12 10:15:39;;;;;;;13.25;10.10;;;22.20;62.00;;;;;;5048612;28;20029;-70
2021/06/12 10:18:05;;;;;;;11.27;9.13;;;22.60;63.60;;;;;;5041443;28;20033;-70
2021/06/12 10:20:31;;;;;;;10.98;8.82;;;22.60;61.20;;;;;;5038653;28;20037;-70
2021/06/12 10:22:57;;;;;;;12.10;8.50;;;22.30;61.40;;;;;;5046060;28;20103;-71
2021/06/12 10:25:24;;;;;;;10.63;7.97;;;22.60;61.50;;;;;;5040933;28;20038;-70
2021/06/12 10:27:50;;;;;;;9.13;7.00;;;22.20;61.00;;;;;;5038451;28;20364;-70
2021/06/12 10:30:19;;;;;;;11.30;7.38;;;22.10;61.00;;;;;;5038986;28;20041;-70
2021/06/12 10:32:47;;;;;;;11.45;8.15;;;22.20;61.50;;;;;;5038735;28;20037;-71
2021/06/12 10:35:21;;;;;;;10.23;6.53;;;22.30;61.80;;;;;;5041121;28;20091;-72
2021/06/12 10:38:14;;;;;;;10.50;6.40;;;22.60;60.30;;;;;;5043390;28;20037;-71
2021/06/12 10:40:47;;;;;;;12.38;6.85;;;22.50;59.50;;;;;;5044756;28;20044;-71
2021/06/12 10:43:18;;;;;;;10.98;7.13;;;22.60;61.10;;;;;;5040673;28;20484;-70
2021/06/12 10:46:08;;;;;;;9.35;6.68;;;23.20;60.00;;;;;;5048616;28;20033;-71
2021/06/12 10:48:52;;;;;;;9.77;5.45;;;23.30;58.30;;;;;;5044092;28;20064;-70
2021/06/12 10:51:26;;;;;;;8.13;5.63;;;22.60;57.70;;;;;;5042428;28;20411;-71
2021/06/12 10:54:12;;;;;;;10.38;5.53;;;22.60;58.10;;;;;;5042379;28;20044;-70
2021/06/12 10:56:42;;;;;;;10.82;6.72;;;22.60;59.50;;;;;;5046366;28;20063;-70
2021/06/12 10:59:09;;;;;;;11.13;7.50;;;23.00;58.20;;;;;;5049132;28;20469;-70
2021/06/12 11:01:35;;;;;;;11.07;7.30;;;22.70;58.40;;;;;;5049226;28;20050;-70
2021/06/12 11:04:16;;;;;;;11.80;6.97;;;22.90;59.30;;;;;;5050000;28;20041;-71
2021/06/12 11:06:57;;;;;;;10.52;6.57;;;23.30;56.10;;;;;;5046216;28;20041;-72
2021/06/12 11:09:35;;;;;;;11.38;7.32;;;22.80;57.30;;;;;;5045272;28;20033;-72
2021/06/12 11:12:13;;;;;;;10.65;7.78;;;22.90;57.50;;;;;;5044889;28;20432;-71
2021/06/12 11:14:39;;;;;;;9.60;6.47;;;23.40;58.50;;;;;;5041842;28;21302;-70
2021/06/12 11:17:11;;;;;;;9.23;6.28;;;23.30;55.20;;;;;;5039955;28;20041;-70
2021/06/12 11:19:44;;;;;;;10.55;6.63;;;23.50;54.90;;;;;;5041834;28;20045;-71
2021/06/12 11:22:32;;;;;;;11.70;7.63;;;23.60;56.10;;;;;;5037984;28;20627;-70
2021/06/12 11:25:07;;;;;;;9.45;6.85;;;23.50;56.30;;;;;;5041714;28;20108;-71
2021/06/12 11:27:41;;;;;;;10.65;6.18;;;24.10;55.00;;;;;;5037678;28;20044;-70
2021/06/12 11:30:21;;;;;;;9.77;6.45;;;24.00;51.10;;;;;;5037597;28;20029;-72
2021/06/12 11:32:47;;;;;;;10.40;5.97;;;23.40;54.70;;;;;;5036094;28;20065;-73
2021/06/12 11:35:32;;;;;;;9.48;5.22;;;23.50;53.90;;;;;;5035716;28;20128;-70
2021/06/12 11:37:58;;;;;;;12.35;7.03;;;24.10;54.50;;;;;;5032298;28;20207;-71
2021/06/12 11:40:24;;;;;;;10.65;6.68;;;24.10;53.70;;;;;;5040158;28;20124;-70
2021/06/12 11:42:50;;;;;;;10.65;6.43;;;23.70;54.30;;;;;;5040734;28;20116;-70
2021/06/12 11:45:19;;;;;;;9.25;6.00;;;23.50;54.70;;;;;;5039775;28;20515;-71
2021/06/12 11:47:45;;;;;;;11.70;6.97;;;23.80;54.30;;;;;;5040764;28;20039;-69
2021/06/12 11:50:11;;;;;;;9.25;7.03;;;24.00;53.30;;;;;;5040787;28;20034;-71
2021/06/12 11:52:39;;;;;;;12.05;7.53;;;23.20;55.10;;;;;;5053960;28;20632;-69
2021/06/12 11:55:20;;;;;;;13.35;7.47;;;23.00;57.40;;;;;;5044355;28;20112;-69
2021/06/12 11:57:48;;;;;;;10.98;7.25;;;23.40;55.70;;;;;;5047165;28;20032;-69
2021/06/12 12:00:47;;;;;;;10.05;7.10;;;23.40;54.90;;;;;;5050155;28;20029;-69
2021/06/12 12:03:15;;;;;;;12.48;6.22;;;22.80;56.80;;;;;;5044708;28;20044;-69
2021/06/12 12:05:43;;;;;;;10.93;5.10;;;23.00;55.90;;;;;;5038300;28;21181;-70
2021/06/12 12:08:11;;;;;;;17.70;6.05;;;23.60;54.90;;;;;;5040554;28;20488;-69
2021/06/12 12:10:38;;;;;;;10.88;6.78;;;23.70;55.20;;;;;;5046316;28;20068;-70
2021/06/12 12:13:04;;;;;;;9.10;6.00;;;23.70;54.50;;;;;;5048680;28;20037;-69
2021/06/12 12:15:41;;;;;;;9.23;6.07;;;23.60;53.60;;;;;;5043052;28;20082;-69
2021/06/12 12:18:11;;;;;;;7.75;5.10;;;23.60;53.50;;;;;;5037537;28;20048;-70
2021/06/12 12:20:47;;;;;;;9.23;6.47;;;23.60;52.00;;;;;;5041866;28;20043;-70
2021/06/12 12:23:27;;;;;;;8.40;5.72;;;23.40;52.80;;;;;;5044216;28;20087;-69
2021/06/12 12:26:07;;;;;;;11.98;5.80;;;23.10;54.20;;;;;;5046546;28;20388;-69
2021/06/12 12:28:32;;;;;;;7.38;4.90;;;23.60;52.80;;;;;;5047382;28;20037;-70
2021/06/12 12:31:08;;;;;;;8.50;4.60;;;23.90;52.90;;;;;;5038102;28;20478;-70
2021/06/12 12:33:44;;;;;;;11.55;6.60;;;24.50;51.40;;;;;;5042600;28;20456;-69
2021/06/12 12:36:11;;;;;;;12.43;7.60;;;24.10;49.70;;;;;;5044412;28;20127;-69
2021/06/12 12:38:36;;;;;;;15.35;8.13;;;24.10;53.00;;;;;;5041928;28;20047;-69